createdAt,value
2022-10-08T00:01:18.844Z,13.60
2022-10-08T00:03:49.326Z,13.60
2022-10-08T00:06:22.988Z,13.50
2022-10-08T00:08:56.225Z,13.40
2022-10-08T00:11:36.375Z,13.20
2022-10-08T00:14:05.295Z,13.10
2022-10-08T00:16:41.287Z,13.20
2022-10-08T00:19:13.772Z,13.20
2022-10-08T00:21:44.051Z,13.10
2022-10-08T00:24:17.293Z,13.00
2022-10-08T00:26:45.154Z,13.00
2022-10-08T00:29:15.358Z,13.20
2022-10-08T00:31:45.333Z,13.30
2022-10-08T00:34:22.494Z,13.40
2022-10-08T00:36:55.087Z,13.40
2022-10-08T00:39:24.611Z,13.50
2022-10-08T00:41:54.909Z,13.60
2022-10-08T00:44:55.722Z,13.60
2022-10-08T00:47:46.148Z,13.70
2022-10-08T00:50:19.352Z,13.70
2022-10-08T00:52:55.050Z,13.70
2022-10-08T00:55:24.491Z,13.80
2022-10-08T00:57:52.907Z,13.80
2022-10-08T01:00:25.236Z,13.80
2022-10-08T01:02:53.369Z,13.80
2022-10-08T01:05:35.022Z,13.70
2022-10-08T01:08:32.669Z,13.60
2022-10-08T01:11:36.710Z,13.50
2022-10-08T01:14:30.388Z,13.40
2022-10-08T01:17:32.171Z,13.30
2022-10-08T01:20:14.038Z,13.20
2022-10-08T01:23:21.289Z,13.10
2022-10-08T01:26:21.366Z,13.10
2022-10-08T01:29:06.261Z,13.00
2022-10-08T01:31:54.628Z,12.90
2022-10-08T01:34:37.591Z,12.80
2022-10-08T01:37:09.873Z,12.80
2022-10-08T01:39:39.548Z,12.80
2022-10-08T01:42:08.594Z,12.70
2022-10-08T01:44:46.431Z,12.70
2022-10-08T01:47:19.856Z,12.70
2022-10-08T01:50:04.049Z,12.50
2022-10-08T01:52:48.295Z,12.50
2022-10-08T01:55:29.680Z,12.40
2022-10-08T01:58:02.825Z,12.60
2022-10-08T02:00:32.186Z,12.60
2022-10-08T02:02:59.116Z,12.70
2022-10-08T02:05:30.650Z,12.70
2022-10-08T02:07:57.795Z,12.80
2022-10-08T02:10:26.335Z,12.90
2022-10-08T02:12:53.406Z,12.90
2022-10-08T02:15:35.265Z,12.80
2022-10-08T02:18:25.158Z,12.80
2022-10-08T02:21:09.433Z,12.80
2022-10-08T02:23:50.113Z,12.80
2022-10-08T02:26:27.407Z,12.90
2022-10-08T02:29:10.952Z,12.90
2022-10-08T02:31:45.672Z,13.00
2022-10-08T02:34:20.223Z,13.00
2022-10-08T02:37:08.070Z,13.10
2022-10-08T02:39:43.562Z,13.10
2022-10-08T02:42:15.874Z,13.10
2022-10-08T02:44:47.456Z,13.10
2022-10-08T02:47:20.698Z,13.00
2022-10-08T02:49:54.024Z,13.00
2022-10-08T02:52:23.193Z,13.00
2022-10-08T02:54:52.987Z,13.00
2022-10-08T02:57:34.995Z,13.00
2022-10-08T03:00:03.597Z,13.00
2022-10-08T03:02:39.788Z,13.00
2022-10-08T03:05:15.358Z,13.10
2022-10-08T03:07:43.281Z,13.10
2022-10-08T03:10:12.145Z,13.20
2022-10-08T03:12:39.169Z,13.20
2022-10-08T03:15:11.624Z,13.10
2022-10-08T03:17:47.347Z,13.10
2022-10-08T03:20:14.834Z,13.10
2022-10-08T03:22:41.798Z,13.10
2022-10-08T03:25:08.981Z,13.10
2022-10-08T03:27:36.087Z,13.10
2022-10-08T03:30:04.858Z,13.10
2022-10-08T03:32:31.778Z,13.10
2022-10-08T03:34:58.720Z,13.10
2022-10-08T03:37:25.612Z,13.20
2022-10-08T03:39:52.642Z,13.30
2022-10-08T03:42:19.548Z,13.30
2022-10-08T03:44:46.535Z,13.40
2022-10-08T03:47:13.456Z,13.40
2022-10-08T03:49:41.183Z,13.50
2022-10-08T03:52:08.197Z,13.40
2022-10-08T03:54:36.363Z,13.40
2022-10-08T03:57:04.571Z,13.50
2022-10-08T03:59:31.472Z,13.40
2022-10-08T04:01:58.427Z,13.50
2022-10-08T04:04:25.858Z,13.40
2022-10-08T04:06:52.954Z,13.50
2022-10-08T04:09:19.922Z,13.50
2022-10-08T04:11:46.866Z,13.50
2022-10-08T04:14:13.828Z,13.50
2022-10-08T04:16:40.790Z,13.50
2022-10-08T04:19:07.751Z,13.50
2022-10-08T04:21:34.701Z,13.50
2022-10-08T04:24:02.302Z,13.40
2022-10-08T04:26:29.291Z,13.20
2022-10-08T04:28:56.242Z,13.20
2022-10-08T04:31:23.635Z,13.00
2022-10-08T04:33:51.980Z,13.00
2022-10-08T04:36:24.724Z,13.10
2022-10-08T04:38:51.958Z,13.00
2022-10-08T04:41:25.648Z,12.90
2022-10-08T04:43:54.623Z,13.00
2022-10-08T04:46:22.995Z,13.00
2022-10-08T04:48:53.434Z,12.90
2022-10-08T04:51:23.229Z,12.90
2022-10-08T04:53:51.493Z,12.80
2022-10-08T04:56:38.662Z,12.90
2022-10-08T04:59:05.665Z,12.90
2022-10-08T05:01:32.635Z,13.00
2022-10-08T05:04:00.329Z,13.10
2022-10-08T05:06:30.102Z,13.20
2022-10-08T05:09:02.483Z,13.20
2022-10-08T05:11:30.252Z,13.30
2022-10-08T05:13:58.509Z,13.30
2022-10-08T05:16:26.506Z,13.40
2022-10-08T05:18:53.867Z,13.40
2022-10-08T05:21:29.788Z,13.40
2022-10-08T05:24:03.944Z,13.40
2022-10-08T05:26:57.051Z,13.40
2022-10-08T05:29:22.516Z,13.40
2022-10-08T05:31:49.445Z,13.40
2022-10-08T05:34:16.427Z,13.40
2022-10-08T05:36:43.424Z,13.40
2022-10-08T05:39:10.729Z,13.40
2022-10-08T05:41:37.677Z,13.40
2022-10-08T05:44:06.051Z,13.40
2022-10-08T05:46:36.063Z,13.40
2022-10-08T05:49:07.145Z,13.40
2022-10-08T05:51:34.571Z,13.40
2022-10-08T05:54:01.598Z,13.50
2022-10-08T05:56:29.130Z,13.50
2022-10-08T05:58:56.133Z,13.50
2022-10-08T06:01:27.972Z,13.50
2022-10-08T06:04:07.021Z,13.60
2022-10-08T06:06:38.645Z,13.60
2022-10-08T06:09:07.208Z,13.60
2022-10-08T06:11:36.957Z,13.60
2022-10-08T06:14:07.021Z,13.50
2022-10-08T06:16:34.868Z,13.40
2022-10-08T06:19:03.175Z,13.30
2022-10-08T06:21:31.053Z,13.30
2022-10-08T06:24:00.928Z,13.30
2022-10-08T06:26:35.707Z,13.30
2022-10-08T06:29:05.844Z,13.40
2022-10-08T06:31:34.809Z,13.50
2022-10-08T06:34:04.114Z,13.50
2022-10-08T06:36:33.324Z,13.70
2022-10-08T06:39:05.627Z,13.80
2022-10-08T06:41:35.532Z,13.90
2022-10-08T06:44:05.273Z,14.10
2022-10-08T06:46:33.318Z,14.20
2022-10-08T06:49:02.499Z,14.30
2022-10-08T06:51:30.513Z,14.30
2022-10-08T06:54:05.751Z,14.30
2022-10-08T06:56:35.638Z,14.30
2022-10-08T06:59:02.590Z,14.40
2022-10-08T07:01:33.404Z,14.50
2022-10-08T07:04:02.054Z,14.60
2022-10-08T07:06:29.480Z,14.70
2022-10-08T07:08:59.513Z,14.90
2022-10-08T07:11:28.202Z,15.10
2022-10-08T07:13:56.323Z,15.30
2022-10-08T07:16:25.758Z,15.50
2022-10-08T07:18:54.429Z,15.50
2022-10-08T07:21:22.718Z,15.50
2022-10-08T07:23:50.382Z,15.50
2022-10-08T07:26:23.853Z,15.50
2022-10-08T07:28:58.165Z,15.60
2022-10-08T07:31:37.376Z,15.80
2022-10-08T07:34:08.567Z,15.90
2022-10-08T07:36:35.611Z,15.90
2022-10-08T07:39:06.981Z,16.10
2022-10-08T07:41:34.821Z,16.20
2022-10-08T07:44:03.540Z,16.50
2022-10-08T07:46:33.745Z,16.90
2022-10-08T07:49:01.676Z,17.30
2022-10-08T07:51:31.505Z,17.60
2022-10-08T07:54:02.736Z,18.00
2022-10-08T07:56:30.794Z,18.30
2022-10-08T07:58:59.688Z,18.70
2022-10-08T08:01:29.672Z,18.90
2022-10-08T08:04:02.911Z,19.20
2022-10-08T08:06:32.200Z,19.30
2022-10-08T08:09:01.200Z,19.50
2022-10-08T08:11:28.927Z,19.70
2022-10-08T08:13:56.099Z,19.70
2022-10-08T09:23:46.482Z,21.10
2022-10-08T09:26:45.885Z,21.50
2022-10-08T09:29:33.620Z,22.20
2022-10-08T09:32:00.594Z,22.50
2022-10-08T09:34:27.604Z,22.60
2022-10-08T09:37:06.391Z,23.00
2022-10-08T09:47:25.219Z,23.30
2022-10-08T09:50:19.074Z,23.60
2022-10-08T09:52:50.350Z,23.50
2022-10-08T09:55:22.940Z,23.30
2022-10-08T10:05:35.477Z,23.40
2022-10-08T10:08:03.000Z,24.10
2022-10-08T10:10:40.579Z,24.40
2022-10-08T10:13:10.504Z,24.80
2022-10-08T10:20:58.611Z,25.00
2022-10-08T10:23:37.232Z,24.30
2022-10-08T10:26:21.769Z,24.40
2022-10-08T10:28:55.049Z,24.80
2022-10-08T10:31:36.819Z,25.20
2022-10-08T11:50:35.058Z,24.90
2022-10-08T11:53:15.131Z,24.10
2022-10-08T11:55:55.088Z,24.30
2022-10-08T11:58:28.941Z,24.90
2022-10-08T12:01:08.357Z,25.10
2022-10-08T12:03:40.170Z,25.50
2022-10-08T12:06:29.648Z,25.80
2022-10-08T12:08:59.259Z,25.90
2022-10-08T12:11:32.195Z,25.80
2022-10-08T12:14:13.902Z,25.90
2022-10-08T12:16:56.352Z,26.00
2022-10-08T12:19:38.162Z,26.30
2022-10-08T12:22:27.933Z,26.70
2022-10-08T12:24:59.249Z,26.80
2022-10-08T12:27:39.177Z,26.80
2022-10-08T12:30:16.736Z,26.70
2022-10-08T12:40:52.463Z,24.60
2022-10-08T12:43:45.822Z,25.00
2022-10-08T12:46:27.377Z,25.50
2022-10-08T12:49:20.525Z,25.50
2022-10-08T12:52:10.424Z,25.40
